sensor_id;sensor_type;location;lat;lon;timestamp;pressure;altitude;pressure_sealevel;temperature;humidity
39243;BME280;29823;47.404;8.566;2023-05-03T00:00:17;97110.66;;;9.32;100.00
39243;BME280;29823;47.404;8.566;2023-05-03T00:02:48;97111.06;;;9.29;100.00
39243;BME280;29823;47.404;8.566;2023-05-03T00:05:16;97114.38;;;9.38;100.00
39243;BME280;29823;47.404;8.566;2023-05-03T00:07:45;97117.00;;;9.44;100.00
39243;BME280;29823;47.404;8.566;2023-05-03T00:10:13;97114.31;;;9.51;100.00
39243;BME280;29823;47.404;8.566;2023-05-03T00:12:43;97114.25;;;9.70;100.00
39243;BME280;29823;47.404;8.566;2023-05-03T00:15:10;97112.78;;;9.81;100.00
39243;BME280;29823;47.404;8.566;2023-05-03T00:17:38;97110.34;;;9.66;100.00
39243;BME280;29823;47.404;8.566;2023-05-03T00:20:08;97114.44;;;9.75;100.00
39243;BME280;29823;47.404;8.566;2023-05-03T00:22:37;97110.75;;;9.76;100.00
39243;BME280;29823;47.404;8.566;2023-05-03T00:25:07;97108.78;;;9.46;100.00
39243;BME280;29823;47.404;8.566;2023-05-03T00:27:35;97084.56;;;9.47;100.00
39243;BME280;29823;47.404;8.566;2023-05-03T00:30:04;97109.63;;;9.46;100.00
39243;BME280;29823;47.404;8.566;2023-05-03T00:32:32;97109.78;;;9.58;100.00
39243;BME280;29823;47.404;8.566;2023-05-03T00:35:00;97101.16;;;9.62;100.00
39243;BME280;29823;47.404;8.566;2023-05-03T00:37:29;97096.09;;;9.41;100.00
39243;BME280;29823;47.404;8.566;2023-05-03T00:39:58;97093.63;;;9.33;100.00
39243;BME280;29823;47.404;8.566;2023-05-03T00:42:26;97095.91;;;9.23;100.00
39243;BME280;29823;47.404;8.566;2023-05-03T00:44:53;97097.34;;;9.32;100.00
39243;BME280;29823;47.404;8.566;2023-05-03T00:47:21;97079.34;;;9.08;100.00
39243;BME280;29823;47.404;8.566;2023-05-03T00:49:50;97102.72;;;9.13;100.00
39243;BME280;29823;47.404;8.566;2023-05-03T00:52:18;97092.44;;;9.10;100.00
39243;BME280;29823;47.404;8.566;2023-05-03T00:54:47;97097.78;;;9.16;100.00
39243;BME280;29823;47.404;8.566;2023-05-03T00:57:15;97091.22;;;9.12;100.00
39243;BME280;29823;47.404;8.566;2023-05-03T00:59:43;97101.47;;;9.22;100.00
39243;BME280;29823;47.404;8.566;2023-05-03T01:02:11;97102.69;;;9.26;100.00
39243;BME280;29823;47.404;8.566;2023-05-03T01:04:39;97099.81;;;9.27;100.00
39243;BME280;29823;47.404;8.566;2023-05-03T01:07:14;97094.09;;;9.11;100.00
39243;BME280;29823;47.404;8.566;2023-05-03T01:09:54;97089.16;;;9.14;100.00
39243;BME280;29823;47.404;8.566;2023-05-03T01:12:35;97069.91;;;8.99;100.00
39243;BME280;29823;47.404;8.566;2023-05-03T01:15:12;97092.47;;;9.03;100.00
39243;BME280;29823;47.404;8.566;2023-05-03T01:17:47;97094.28;;;9.22;100.00
39243;BME280;29823;47.404;8.566;2023-05-03T01:20:21;97089.97;;;9.15;100.00
39243;BME280;29823;47.404;8.566;2023-05-03T01:22:59;97096.53;;;9.12;100.00
39243;BME280;29823;47.404;8.566;2023-05-03T01:25:29;97083.88;;;8.95;100.00
39243;BME280;29823;47.404;8.566;2023-05-03T01:27:58;97084.06;;;8.93;100.00
39243;BME280;29823;47.404;8.566;2023-05-03T01:30:27;97069.31;;;8.84;100.00
39243;BME280;29823;47.404;8.566;2023-05-03T01:33:02;97071.53;;;8.94;100.00
39243;BME280;29823;47.404;8.566;2023-05-03T01:35:35;97078.13;;;8.78;100.00
39243;BME280;29823;47.404;8.566;2023-05-03T01:38:04;97080.59;;;8.80;100.00
39243;BME280;29823;47.404;8.566;2023-05-03T01:40:39;97074.84;;;8.83;100.00
39243;BME280;29823;47.404;8.566;2023-05-03T01:43:10;97061.31;;;8.71;100.00
39243;BME280;29823;47.404;8.566;2023-05-03T01:45:39;97068.72;;;8.56;100.00
39243;BME280;29823;47.404;8.566;2023-05-03T01:48:10;97077.72;;;8.68;100.00
39243;BME280;29823;47.404;8.566;2023-05-03T01:50:38;97073.41;;;8.61;100.00
39243;BME280;29823;47.404;8.566;2023-05-03T01:53:06;97059.06;;;8.55;100.00
39243;BME280;29823;47.404;8.566;2023-05-03T01:55:35;97070.94;;;8.59;100.00
39243;BME280;29823;47.404;8.566;2023-05-03T01:58:03;97070.78;;;8.54;100.00
39243;BME280;29823;47.404;8.566;2023-05-03T02:00:32;97072.81;;;8.59;100.00
39243;BME280;29823;47.404;8.566;2023-05-03T02:02:59;97063.38;;;8.43;100.00
39243;BME280;29823;47.404;8.566;2023-05-03T02:05:27;97077.72;;;8.42;100.00
39243;BME280;29823;47.404;8.566;2023-05-03T02:07:55;97063.78;;;8.34;100.00
39243;BME280;29823;47.404;8.566;2023-05-03T02:10:23;97072.41;;;8.36;100.00
39243;BME280;29823;47.404;8.566;2023-05-03T02:12:52;97068.50;;;8.38;100.00
39243;BME280;29823;47.404;8.566;2023-05-03T02:15:20;97073.22;;;8.43;100.00
39243;BME280;29823;47.404;8.566;2023-05-03T02:17:48;97074.44;;;8.53;100.00
39243;BME280;29823;47.404;8.566;2023-05-03T02:20:16;97076.47;;;8.45;100.00
39243;BME280;29823;47.404;8.566;2023-05-03T02:22:44;97078.94;;;8.40;100.00
39243;BME280;29823;47.404;8.566;2023-05-03T02:25:12;97082.81;;;8.37;100.00
39243;BME280;29823;47.404;8.566;2023-05-03T02:27:40;97076.06;;;8.28;100.00
39243;BME280;29823;47.404;8.566;2023-05-03T02:30:10;97078.13;;;8.33;100.00
39243;BME280;29823;47.404;8.566;2023-05-03T02:32:37;97074.03;;;8.30;100.00
39243;BME280;29823;47.404;8.566;2023-05-03T02:35:06;97071.56;;;8.22;100.00
39243;BME280;29823;47.404;8.566;2023-05-03T02:37:34;97067.47;;;8.20;100.00
39243;BME280;29823;47.404;8.566;2023-05-03T02:40:02;97074.84;;;8.24;100.00
39243;BME280;29823;47.404;8.566;2023-05-03T02:42:31;97014.94;;;7.88;100.00
39243;BME280;29823;47.404;8.566;2023-05-03T02:44:59;97067.41;;;8.13;100.00
39243;BME280;29823;47.404;8.566;2023-05-03T02:47:29;97060.81;;;8.03;100.00
39243;BME280;29823;47.404;8.566;2023-05-03T02:49:57;97071.47;;;7.96;100.00
39243;BME280;29823;47.404;8.566;2023-05-03T02:52:25;97065.31;;;7.96;100.00
39243;BME280;29823;47.404;8.566;2023-05-03T02:54:53;97071.06;;;7.99;100.00
39243;BME280;29823;47.404;8.566;2023-05-03T02:57:21;97072.13;;;8.11;100.00
39243;BME280;29823;47.404;8.566;2023-05-03T02:59:49;97077.50;;;8.24;100.00
39243;BME280;29823;47.404;8.566;2023-05-03T03:02:16;97047.59;;;8.22;100.00
39243;BME280;29823;47.404;8.566;2023-05-03T03:04:45;97056.41;;;8.29;100.00
39243;BME280;29823;47.404;8.566;2023-05-03T03:07:13;97060.28;;;8.27;100.00
39243;BME280;29823;47.404;8.566;2023-05-03T03:09:41;97058.84;;;8.24;100.00
39243;BME280;29823;47.404;8.566;2023-05-03T03:12:09;97065.41;;;8.22;100.00
39243;BME280;29823;47.404;8.566;2023-05-03T03:14:37;97061.53;;;8.31;100.00
39243;BME280;29823;47.404;8.566;2023-05-03T03:17:06;97061.91;;;8.21;100.00
39243;BME280;29823;47.404;8.566;2023-05-03T03:19:35;97069.66;;;8.16;100.00
39243;BME280;29823;47.404;8.566;2023-05-03T03:22:04;97064.78;;;8.20;100.00
39243;BME280;29823;47.404;8.566;2023-05-03T03:24:32;97060.84;;;8.16;100.00
39243;BME280;29823;47.404;8.566;2023-05-03T03:27:00;97063.94;;;8.19;100.00
39243;BME280;29823;47.404;8.566;2023-05-03T03:29:28;97049.78;;;8.06;100.00
39243;BME280;29823;47.404;8.566;2023-05-03T03:31:56;97067.59;;;8.05;100.00
39243;BME280;29823;47.404;8.566;2023-05-03T03:34:24;97066.59;;;8.06;100.00
39243;BME280;29823;47.404;8.566;2023-05-03T03:36:52;97065.72;;;7.99;100.00
39243;BME280;29823;47.404;8.566;2023-05-03T03:39:21;97064.75;;;8.13;100.00
39243;BME280;29823;47.404;8.566;2023-05-03T03:41:49;97062.31;;;8.18;100.00
39243;BME280;29823;47.404;8.566;2023-05-03T03:44:17;97056.34;;;8.16;100.00
39243;BME280;29823;47.404;8.566;2023-05-03T03:46:45;97069.25;;;8.13;100.00
39243;BME280;29823;47.404;8.566;2023-05-03T03:49:13;97062.91;;;8.07;100.00
39243;BME280;29823;47.404;8.566;2023-05-03T03:51:41;97061.25;;;8.06;100.00
39243;BME280;29823;47.404;8.566;2023-05-03T03:54:08;97065.13;;;8.10;100.00
39243;BME280;29823;47.404;8.566;2023-05-03T03:56:38;97070.69;;;8.15;100.00
39243;BME280;29823;47.404;8.566;2023-05-03T03:59:05;97073.19;;;8.23;100.00
39243;BME280;29823;47.404;8.566;2023-05-03T04:01:33;97066.59;;;8.19;100.00
39243;BME280;29823;47.404;8.566;2023-05-03T04:04:01;97076.25;;;8.20;100.00
39243;BME280;29823;47.404;8.566;2023-05-03T04:06:29;97075.25;;;8.34;100.00
39243;BME280;29823;47.404;8.566;2023-05-03T04:08:58;97071.13;;;8.25;100.00
39243;BME280;29823;47.404;8.566;2023-05-03T04:11:26;97065.41;;;8.41;100.00
39243;BME280;29823;47.404;8.566;2023-05-03T04:13:55;97063.38;;;8.37;100.00
39243;BME280;29823;47.404;8.566;2023-05-03T04:16:23;97062.97;;;8.33;100.00
39243;BME280;29823;47.404;8.566;2023-05-03T04:18:51;97074.03;;;8.37;100.00
39243;BME280;29823;47.404;8.566;2023-05-03T04:21:18;97072.16;;;8.24;100.00
39243;BME280;29823;47.404;8.566;2023-05-03T04:23:47;97078.47;;;8.17;100.00
39243;BME280;29823;47.404;8.566;2023-05-03T04:26:15;97082.41;;;8.21;100.00
39243;BME280;29823;47.404;8.566;2023-05-03T04:28:58;97076.25;;;8.20;100.00
39243;BME280;29823;47.404;8.566;2023-05-03T04:31:26;97084.25;;;8.20;100.00
39243;BME280;29823;47.404;8.566;2023-05-03T04:33:54;97064.13;;;8.11;100.00
39243;BME280;29823;47.404;8.566;2023-05-03T04:36:23;97083.38;;;8.13;100.00
39243;BME280;29823;47.404;8.566;2023-05-03T04:38:52;97079.78;;;8.27;100.00
39243;BME280;29823;47.404;8.566;2023-05-03T04:41:20;97067.03;;;8.23;100.00
39243;BME280;29823;47.404;8.566;2023-05-03T04:43:48;97082.81;;;8.37;100.00
39243;BME280;29823;47.404;8.566;2023-05-03T04:46:17;97076.88;;;8.48;100.00
39243;BME280;29823;47.404;8.566;2023-05-03T04:48:45;97090.00;;;8.50;100.00
39243;BME280;29823;47.404;8.566;2023-05-03T04:51:13;97091.47;;;8.52;100.00
39243;BME280;29823;47.404;8.566;2023-05-03T04:53:40;97097.81;;;8.64;100.00
39243;BME280;29823;47.404;8.566;2023-05-03T04:56:08;97100.28;;;8.72;100.00
39243;BME280;29823;47.404;8.566;2023-05-03T04:58:36;97103.97;;;8.78;100.00
39243;BME280;29823;47.404;8.566;2023-05-03T05:01:04;97095.34;;;8.69;100.00
39243;BME280;29823;47.404;8.566;2023-05-03T05:03:34;97090.84;;;8.89;100.00
39243;BME280;29823;47.404;8.566;2023-05-03T05:06:02;97105.38;;;9.06;100.00
39243;BME280;29823;47.404;8.566;2023-05-03T05:08:32;97107.44;;;9.04;100.00
39243;BME280;29823;47.404;8.566;2023-05-03T05:11:00;97092.44;;;9.16;100.00
39243;BME280;29823;47.404;8.566;2023-05-03T05:13:29;97105.34;;;9.32;100.00
39243;BME280;29823;47.404;8.566;2023-05-03T05:15:57;97108.75;;;9.59;100.00
39243;BME280;29823;47.404;8.566;2023-05-03T05:18:24;97110.44;;;9.47;100.00
39243;BME280;29823;47.404;8.566;2023-05-03T05:20:54;97110.78;;;9.63;100.00
39243;BME280;29823;47.404;8.566;2023-05-03T05:23:22;97100.97;;;9.57;100.00
39243;BME280;29823;47.404;8.566;2023-05-03T05:25:49;97109.19;;;9.56;100.00
39243;BME280;29823;47.404;8.566;2023-05-03T05:28:19;97115.09;;;9.71;100.00
39243;BME280;29823;47.404;8.566;2023-05-03T05:30:47;97122.19;;;9.83;100.00
39243;BME280;29823;47.404;8.566;2023-05-03T05:33:15;97121.03;;;9.66;100.00
39243;BME280;29823;47.404;8.566;2023-05-03T05:35:46;97117.97;;;9.69;100.00
39243;BME280;29823;47.404;8.566;2023-05-03T05:38:15;97134.19;;;9.68;100.00
39243;BME280;29823;47.404;8.566;2023-05-03T05:40:43;97125.97;;;9.76;100.00
39243;BME280;29823;47.404;8.566;2023-05-03T05:43:11;97122.47;;;9.75;100.00
39243;BME280;29823;47.404;8.566;2023-05-03T05:45:39;97125.72;;;9.77;100.00
39243;BME280;29823;47.404;8.566;2023-05-03T05:48:07;97136.97;;;9.92;100.00
39243;BME280;29823;47.404;8.566;2023-05-03T05:50:34;97130.41;;;9.88;100.00
39243;BME280;29823;47.404;8.566;2023-05-03T05:53:03;97122.19;;;9.83;100.00
39243;BME280;29823;47.404;8.566;2023-05-03T05:55:32;97133.06;;;9.88;100.00
39243;BME280;29823;47.404;8.566;2023-05-03T05:57:59;97125.97;;;9.69;100.00
39243;BME280;29823;47.404;8.566;2023-05-03T06:00:28;97126.69;;;9.96;100.00
39243;BME280;29823;47.404;8.566;2023-05-03T06:02:56;97123.81;;;9.97;100.00
39243;BME280;29823;47.404;8.566;2023-05-03T06:05:24;97109.00;;;10.08;100.00
39243;BME280;29823;47.404;8.566;2023-05-03T06:07:52;97119.94;;;10.37;100.00
39243;BME280;29823;47.404;8.566;2023-05-03T06:10:20;97115.22;;;9.89;100.00
39243;BME280;29823;47.404;8.566;2023-05-03T06:12:49;97110.44;;;10.04;100.00
39243;BME280;29823;47.404;8.566;2023-05-03T06:15:17;97116.75;;;10.16;100.00
39243;BME280;29823;47.404;8.566;2023-05-03T06:17:45;97116.59;;;10.04;100.00
39243;BME280;29823;47.404;8.566;2023-05-03T06:20:13;97117.22;;;9.93;100.00
39243;BME280;29823;47.404;8.566;2023-05-03T06:22:41;97110.50;;;9.84;100.00
39243;BME280;29823;47.404;8.566;2023-05-03T06:25:09;97114.84;;;9.72;100.00
39243;BME280;29823;47.404;8.566;2023-05-03T06:27:43;97101.94;;;9.69;100.00
39243;BME280;29823;47.404;8.566;2023-05-03T06:30:13;97104.16;;;9.72;100.00
39243;BME280;29823;47.404;8.566;2023-05-03T06:32:41;97122.66;;;9.80;100.00
39243;BME280;29823;47.404;8.566;2023-05-03T06:35:09;97130.47;;;9.75;100.00
39243;BME280;29823;47.404;8.566;2023-05-03T06:37:38;97125.97;;;9.63;100.00
39243;BME280;29823;47.404;8.566;2023-05-03T06:40:06;97114.44;;;9.75;100.00
39243;BME280;29823;47.404;8.566;2023-05-03T06:42:34;97125.53;;;9.72;100.00
39243;BME280;29823;47.404;8.566;2023-05-03T06:45:03;97117.22;;;9.93;100.00
39243;BME280;29823;47.404;8.566;2023-05-03T06:47:32;97108.56;;;10.11;100.00
39243;BME280;29823;47.404;8.566;2023-05-03T06:50:00;97122.66;;;10.24;100.00
39243;BME280;29823;47.404;8.566;2023-05-03T06:52:28;97119.13;;;10.30;100.00
39243;BME280;29823;47.404;8.566;2023-05-03T06:54:55;97108.09;;;10.20;100.00
39243;BME280;29823;47.404;8.566;2023-05-03T06:57:26;97104.53;;;10.33;100.00
39243;BME280;29823;47.404;8.566;2023-05-03T06:59:54;97111.66;;;10.39;100.00
39243;BME280;29823;47.404;8.566;2023-05-03T07:02:22;97104.81;;;11.05;100.00
39243;BME280;29823;47.404;8.566;2023-05-03T07:04:53;97094.47;;;11.08;100.00
39243;BME280;29823;47.404;8.566;2023-05-03T07:07:21;97097.34;;;11.31;100.00
39243;BME280;29823;47.404;8.566;2023-05-03T07:09:49;97092.91;;;11.19;100.00
39243;BME280;29823;47.404;8.566;2023-05-03T07:12:17;97089.72;;;11.10;100.00
39243;BME280;29823;47.404;8.566;2023-05-03T07:14:44;97097.00;;;11.21;100.00
39243;BME280;29823;47.404;8.566;2023-05-03T07:17:12;97097.19;;;11.02;100.00
39243;BME280;29823;47.404;8.566;2023-05-03T07:19:40;97088.88;;;11.52;100.00
39243;BME280;29823;47.404;8.566;2023-05-03T07:22:10;97064.25;;;11.62;100.00
39243;BME280;29823;47.404;8.566;2023-05-03T07:24:38;97081.28;;;11.49;100.00
39243;BME280;29823;47.404;8.566;2023-05-03T07:27:07;97078.16;;;11.52;100.00
39243;BME280;29823;47.404;8.566;2023-05-03T07:29:35;97072.81;;;11.52;100.00
39243;BME280;29823;47.404;8.566;2023-05-03T07:32:03;97083.22;;;11.60;100.00
39243;BME280;29823;47.404;8.566;2023-05-03T07:34:31;97080.06;;;11.27;100.00
39243;BME280;29823;47.404;8.566;2023-05-03T07:36:59;97073.38;;;11.54;100.00
39243;BME280;29823;47.404;8.566;2023-05-03T07:39:28;97076.63;;;11.81;100.00
39243;BME280;29823;47.404;8.566;2023-05-03T07:41:56;97087.31;;;11.63;100.00
39243;BME280;29823;47.404;8.566;2023-05-03T07:44:24;97079.06;;;11.64;100.00
39243;BME280;29823;47.404;8.566;2023-05-03T07:46:52;97075.44;;;11.77;100.00
39243;BME280;29823;47.404;8.566;2023-05-03T07:49:19;97056.56;;;12.01;100.00
39243;BME280;29823;47.404;8.566;2023-05-03T07:51:47;97050.28;;;12.07;100.00
39243;BME280;29823;47.404;8.566;2023-05-03T07:54:15;97060.72;;;11.97;100.00
39243;BME280;29823;47.404;8.566;2023-05-03T07:56:44;97062.19;;;12.41;100.00
39243;BME280;29823;47.404;8.566;2023-05-03T07:59:12;97062.81;;;12.77;100.00
39243;BME280;29823;47.404;8.566;2023-05-03T08:01:40;97050.44;;;12.88;100.00
39243;BME280;29823;47.404;8.566;2023-05-03T08:04:07;97046.47;;;12.67;100.00
39243;BME280;29823;47.404;8.566;2023-05-03T08:06:36;97029.44;;;12.73;100.00
39243;BME280;29823;47.404;8.566;2023-05-03T08:09:04;97035.69;;;13.08;100.00
39243;BME280;29823;47.404;8.566;2023-05-03T08:11:32;97030.84;;;13.33;100.00
39243;BME280;29823;47.404;8.566;2023-05-03T08:14:01;97031.59;;;13.80;100.00
39243;BME280;29823;47.404;8.566;2023-05-03T08:16:29;97020.34;;;14.22;100.00
39243;BME280;29823;47.404;8.566;2023-05-03T08:18:57;97035.94;;;13.69;100.00
39243;BME280;29823;47.404;8.566;2023-05-03T08:21:28;97029.91;;;14.18;100.00
39243;BME280;29823;47.404;8.566;2023-05-03T08:23:56;97040.09;;;14.44;100.00
39243;BME280;29823;47.404;8.566;2023-05-03T08:26:24;97039.47;;;15.03;100.00
39243;BME280;29823;47.404;8.566;2023-05-03T08:28:54;97037.97;;;13.90;100.00
39243;BME280;29823;47.404;8.566;2023-05-03T08:31:23;97035.69;;;13.82;100.00
39243;BME280;29823;47.404;8.566;2023-05-03T08:33:51;97019.97;;;14.19;100.00
39243;BME280;29823;47.404;8.566;2023-05-03T08:36:19;97020.44;;;14.27;100.00
39243;BME280;29823;47.404;8.566;2023-05-03T08:38:47;97028.69;;;15.03;100.00
39243;BME280;29823;47.404;8.566;2023-05-03T08:41:20;97025.59;;;14.78;100.00
39243;BME280;29823;47.404;8.566;2023-05-03T08:43:51;96984.06;;;13.97;100.00
39243;BME280;29823;47.404;8.566;2023-05-03T08:46:20;97029.28;;;13.21;100.00
39243;BME280;29823;47.404;8.566;2023-05-03T08:48:51;97026.38;;;14.29;100.00
39243;BME280;29823;47.404;8.566;2023-05-03T08:51:20;97030.97;;;13.89;100.00
39243;BME280;29823;47.404;8.566;2023-05-03T08:53:49;97025.06;;;13.76;100.00
39243;BME280;29823;47.404;8.566;2023-05-03T08:56:23;97020.94;;;13.45;100.00
39243;BME280;29823;47.404;8.566;2023-05-03T08:58:52;97013.25;;;15.15;100.00
39243;BME280;29823;47.404;8.566;2023-05-03T09:01:20;97008.41;;;15.50;100.00
39243;BME280;29823;47.404;8.566;2023-05-03T09:03:50;97006.91;;;16.07;100.00
39243;BME280;29823;47.404;8.566;2023-05-03T09:06:19;97003.28;;;16.23;100.00
39243;BME280;29823;47.404;8.566;2023-05-03T09:08:47;97003.38;;;15.80;100.00
39243;BME280;29823;47.404;8.566;2023-05-03T09:11:22;97010.00;;;18.03;81.11
39243;BME280;29823;47.404;8.566;2023-05-03T09:13:50;97008.31;;;17.36;88.13
39243;BME280;29823;47.404;8.566;2023-05-03T09:16:23;97018.38;;;17.45;83.57
39243;BME280;29823;47.404;8.566;2023-05-03T09:18:58;97017.94;;;16.85;90.73
39243;BME280;29823;47.404;8.566;2023-05-03T09:21:27;97020.94;;;18.38;85.92
39243;BME280;29823;47.404;8.566;2023-05-03T09:23:56;97016.38;;;19.24;68.72
39243;BME280;29823;47.404;8.566;2023-05-03T09:26:29;97013.25;;;18.05;76.87
39243;BME280;29823;47.404;8.566;2023-05-03T09:29:01;97022.06;;;18.62;71.22
39243;BME280;29823;47.404;8.566;2023-05-03T09:31:32;97013.09;;;19.12;68.72
39243;BME280;29823;47.404;8.566;2023-05-03T09:34:02;97013.94;;;19.07;68.26
39243;BME280;29823;47.404;8.566;2023-05-03T09:36:47;97012.31;;;19.01;69.27
39243;BME280;29823;47.404;8.566;2023-05-03T09:39:15;97003.41;;;19.99;64.78
39243;BME280;29823;47.404;8.566;2023-05-03T09:41:44;97002.25;;;19.17;66.24
39243;BME280;29823;47.404;8.566;2023-05-03T09:44:11;97009.34;;;20.11;63.30
39243;BME280;29823;47.404;8.566;2023-05-03T09:47:02;97002.31;;;19.95;64.83
39243;BME280;29823;47.404;8.566;2023-05-03T09:49:32;97014.75;;;20.16;60.48
39243;BME280;29823;47.404;8.566;2023-05-03T09:52:00;97005.25;;;19.30;65.98
39243;BME280;29823;47.404;8.566;2023-05-03T09:54:29;97006.19;;;19.79;67.03
39243;BME280;29823;47.404;8.566;2023-05-03T09:56:57;96998.50;;;20.93;59.75
39243;BME280;29823;47.404;8.566;2023-05-03T09:59:26;96956.38;;;20.91;57.00
39243;BME280;29823;47.404;8.566;2023-05-03T10:01:55;97001.44;;;21.82;56.84
39243;BME280;29823;47.404;8.566;2023-05-03T10:04:25;96998.59;;;21.40;59.35
39243;BME280;29823;47.404;8.566;2023-05-03T10:06:58;97003.25;;;20.73;59.39
39243;BME280;29823;47.404;8.566;2023-05-03T10:09:30;96994.53;;;21.38;57.87
39243;BME280;29823;47.404;8.566;2023-05-03T10:11:59;96994.50;;;21.14;58.00
39243;BME280;29823;47.404;8.566;2023-05-03T10:14:28;97002.00;;;20.55;59.79
39243;BME280;29823;47.404;8.566;2023-05-03T10:17:00;96999.31;;;20.50;61.25
39243;BME280;29823;47.404;8.566;2023-05-03T10:19:44;96993.59;;;20.57;60.94
39243;BME280;29823;47.404;8.566;2023-05-03T10:22:14;97000.16;;;20.02;61.93
39243;BME280;29823;47.404;8.566;2023-05-03T10:25:07;96999.59;;;20.54;58.96
39243;BME280;29823;47.404;8.566;2023-05-03T10:27:49;96994.13;;;21.26;57.33
39243;BME280;29823;47.404;8.566;2023-05-03T10:30:28;96980.09;;;21.89;54.19
39243;BME280;29823;47.404;8.566;2023-05-03T10:32:58;96971.47;;;22.24;52.68
39243;BME280;29823;47.404;8.566;2023-05-03T10:35:27;96964.19;;;23.39;52.34
39243;BME280;29823;47.404;8.566;2023-05-03T10:37:56;96973.34;;;22.98;50.97
39243;BME280;29823;47.404;8.566;2023-05-03T10:40:40;96955.31;;;23.15;51.41
39243;BME280;29823;47.404;8.566;2023-05-03T10:43:41;96967.47;;;22.59;51.89
39243;BME280;29823;47.404;8.566;2023-05-03T10:46:32;96970.44;;;22.20;52.61
39243;BME280;29823;47.404;8.566;2023-05-03T10:49:14;96963.84;;;22.95;50.10
39243;BME280;29823;47.404;8.566;2023-05-03T10:51:42;96961.72;;;22.00;52.66
39243;BME280;29823;47.404;8.566;2023-05-03T10:57:42;96957.03;;;22.42;48.85
39243;BME280;29823;47.404;8.566;2023-05-03T11:00:23;96951.03;;;23.41;48.33
39243;BME280;29823;47.404;8.566;2023-05-03T11:21:14;96935.38;;;25.46;44.55
39243;BME280;29823;47.404;8.566;2023-05-03T11:23:42;96939.63;;;23.93;48.40
39243;BME280;29823;47.404;8.566;2023-05-03T11:26:12;96934.31;;;24.24;47.68
39243;BME280;29823;47.404;8.566;2023-05-03T11:28:41;96938.31;;;22.73;50.31
39243;BME280;29823;47.404;8.566;2023-05-03T11:31:09;96949.84;;;23.61;48.04
39243;BME280;29823;47.404;8.566;2023-05-03T11:33:38;96942.03;;;23.27;48.38
39243;BME280;29823;47.404;8.566;2023-05-03T11:36:07;96938.28;;;24.53;47.48
39243;BME280;29823;47.404;8.566;2023-05-03T11:38:37;96944.75;;;22.63;49.45
39243;BME280;29823;47.404;8.566;2023-05-03T11:41:11;96931.28;;;24.61;47.31
39243;BME280;29823;47.404;8.566;2023-05-03T11:43:41;96927.56;;;22.63;50.11
39243;BME280;29823;47.404;8.566;2023-05-03T11:46:09;96926.16;;;22.97;51.01
39243;BME280;29823;47.404;8.566;2023-05-03T11:48:37;96930.31;;;23.08;49.20
39243;BME280;29823;47.404;8.566;2023-05-03T11:51:08;96927.59;;;22.44;49.74
39243;BME280;29823;47.404;8.566;2023-05-03T11:53:39;96920.75;;;23.11;47.91
39243;BME280;29823;47.404;8.566;2023-05-03T11:56:10;96920.22;;;23.41;46.56
39243;BME280;29823;47.404;8.566;2023-05-03T11:58:49;96916.06;;;24.33;44.98
39243;BME280;29823;47.404;8.566;2023-05-03T12:01:18;96919.78;;;23.20;47.76
39243;BME280;29823;47.404;8.566;2023-05-03T12:03:52;96913.44;;;22.24;50.76
39243;BME280;29823;47.404;8.566;2023-05-03T12:06:20;96917.66;;;22.85;50.03
39243;BME280;29823;47.404;8.566;2023-05-03T12:08:51;96907.81;;;23.03;50.99
39243;BME280;29823;47.404;8.566;2023-05-03T12:11:20;96904.72;;;24.39;47.44
39243;BME280;29823;47.404;8.566;2023-05-03T12:13:56;96915.16;;;23.34;47.64
39243;BME280;29823;47.404;8.566;2023-05-03T12:16:25;96914.25;;;22.24;51.24
39243;BME280;29823;47.404;8.566;2023-05-03T12:18:55;96923.41;;;20.97;52.35
39243;BME280;29823;47.404;8.566;2023-05-03T12:21:42;96911.00;;;20.86;53.57
39243;BME280;29823;47.404;8.566;2023-05-03T12:24:25;96901.06;;;21.94;52.27
39243;BME280;29823;47.404;8.566;2023-05-03T12:26:54;96889.84;;;23.83;47.47
39243;BME280;29823;47.404;8.566;2023-05-03T12:29:23;96897.19;;;24.45;46.92
39243;BME280;29823;47.404;8.566;2023-05-03T12:31:54;96899.28;;;22.77;48.79
39243;BME280;29823;47.404;8.566;2023-05-03T12:34:24;96900.28;;;22.95;50.28
39243;BME280;29823;47.404;8.566;2023-05-03T12:36:55;96893.66;;;22.00;51.55
39243;BME280;29823;47.404;8.566;2023-05-03T12:39:32;96897.69;;;24.11;46.99
39243;BME280;29823;47.404;8.566;2023-05-03T12:42:05;96894.50;;;26.06;43.28
39243;BME280;29823;47.404;8.566;2023-05-03T12:44:36;96892.06;;;25.48;45.32
39243;BME280;29823;47.404;8.566;2023-05-03T12:47:08;96888.38;;;25.53;43.13
39243;BME280;29823;47.404;8.566;2023-05-03T12:49:37;96887.53;;;23.63;45.86
39243;BME280;29823;47.404;8.566;2023-05-03T12:52:05;96891.84;;;24.04;46.02
39243;BME280;29823;47.404;8.566;2023-05-03T12:54:37;96884.84;;;24.47;44.31
39243;BME280;29823;47.404;8.566;2023-05-03T12:57:08;96888.63;;;24.38;46.40
39243;BME280;29823;47.404;8.566;2023-05-03T12:59:41;96888.44;;;25.00;43.62
39243;BME280;29823;47.404;8.566;2023-05-03T13:02:18;96864.06;;;26.07;41.66
39243;BME280;29823;47.404;8.566;2023-05-03T13:04:50;96876.06;;;25.33;42.27
39243;BME280;29823;47.404;8.566;2023-05-03T13:07:27;96878.47;;;24.16;43.29
39243;BME280;29823;47.404;8.566;2023-05-03T13:10:00;96863.78;;;24.92;43.20
39243;BME280;29823;47.404;8.566;2023-05-03T13:12:30;96858.25;;;26.34;41.44
39243;BME280;29823;47.404;8.566;2023-05-03T13:15:00;96876.78;;;22.16;49.04
39243;BME280;29823;47.404;8.566;2023-05-03T13:17:29;96876.34;;;23.37;45.93
39243;BME280;29823;47.404;8.566;2023-05-03T13:19:58;96868.28;;;24.08;45.15
39243;BME280;29823;47.404;8.566;2023-05-03T13:22:26;96862.28;;;23.44;45.61
39243;BME280;29823;47.404;8.566;2023-05-03T13:24:54;96873.22;;;21.13;49.82
39243;BME280;29823;47.404;8.566;2023-05-03T13:27:23;96862.94;;;22.50;47.63
39243;BME280;29823;47.404;8.566;2023-05-03T13:29:52;96854.16;;;24.28;44.15
39243;BME280;29823;47.404;8.566;2023-05-03T13:32:19;96842.56;;;24.75;44.03